Time;durP1;ratioP1;P1;durP2;ratioP2;P2;SDS_P1;SDS_P2;PMS_P1;PMS_P2;Temp;Humidity;BMP_temperature;BMP_pressure;BME280_temperature;BME280_humidity;BME280_pressure;Samples;Min_cycle;Max_cycle;Signal;HPM_P1;HPM_P2
2023/06/23 00:02:19;;;;;;;17.45;10.63;;;17.60;94.20;;;;;;5043917;28;20410;-56
2023/06/23 00:04:48;;;;;;;25.85;12.20;;;17.60;94.30;;;;;;5048026;28;20048;-56
2023/06/23 00:07:14;;;;;;;17.38;10.80;;;17.60;94.20;;;;;;5055134;28;20328;-58
2023/06/23 00:09:43;;;;;;;22.40;11.20;;;17.60;94.30;;;;;;5047553;28;20056;-56
2023/06/23 00:12:12;;;;;;;17.95;11.13;;;17.60;94.30;;;;;;5051104;28;20029;-55
2023/06/23 00:14:40;;;;;;;17.77;9.88;;;17.60;94.40;;;;;;5050799;28;20396;-56
2023/06/23 00:17:08;;;;;;;19.80;10.82;;;17.60;94.40;;;;;;5049786;28;20165;-58
2023/06/23 00:19:35;;;;;;;19.27;9.70;;;17.50;94.40;;;;;;5047009;28;20037;-57
2023/06/23 00:22:05;;;;;;;19.00;10.45;;;17.60;94.50;;;;;;5054008;28;20075;-56
2023/06/23 00:24:33;;;;;;;20.45;10.73;;;17.50;94.50;;;;;;5051024;28;20044;-56
2023/06/23 00:27:03;;;;;;;16.95;10.40;;;17.50;94.60;;;;;;5049982;28;20082;-57
2023/06/23 00:29:29;;;;;;;26.48;11.50;;;17.50;94.70;;;;;;5032628;28;20036;-58
2023/06/23 00:31:54;;;;;;;17.55;10.95;;;17.50;94.60;;;;;;5048770;28;20029;-58
2023/06/23 00:34:23;;;;;;;22.33;11.52;;;17.50;94.60;;;;;;5048522;28;20034;-59
2023/06/23 00:36:52;;;;;;;18.65;10.98;;;17.40;94.60;;;;;;5045797;28;20482;-59
2023/06/23 00:39:19;;;;;;;17.85;10.45;;;17.40;94.60;;;;;;5054016;28;20025;-57
2023/06/23 00:41:48;;;;;;;15.10;9.68;;;17.40;94.60;;;;;;5050600;28;20047;-57
2023/06/23 00:44:20;;;;;;;18.63;10.43;;;17.40;94.70;;;;;;5053370;28;20029;-58
2023/06/23 00:46:47;;;;;;;15.68;10.25;;;17.50;94.70;;;;;;5045668;28;20020;-58
2023/06/23 00:49:15;;;;;;;15.43;9.52;;;17.40;94.70;;;;;;5031392;28;20106;-56
2023/06/23 00:51:42;;;;;;;20.42;10.10;;;17.40;94.70;;;;;;5053305;28;20043;-57
2023/06/23 00:54:09;;;;;;;15.00;10.88;;;17.40;94.60;;;;;;5050228;28;20039;-58
2023/06/23 00:56:38;;;;;;;24.05;10.30;;;17.40;94.50;;;;;;5054088;28;20446;-57
2023/06/23 00:59:07;;;;;;;17.40;9.73;;;17.40;94.60;;;;;;5045856;28;20060;-55
2023/06/23 01:01:37;;;;;;;24.65;10.48;;;17.40;94.70;;;;;;5049914;28;20063;-56
2023/06/23 01:04:08;;;;;;;21.38;11.27;;;17.40;94.70;;;;;;5047436;28;20038;-55
2023/06/23 01:07:15;;;;;;;16.63;10.55;;;17.40;94.70;;;;;;5045635;28;20336;-56
2023/06/23 01:10:07;;;;;;;18.60;10.25;;;17.40;94.80;;;;;;5090680;27;20467;-55
2023/06/23 01:12:44;;;;;;;24.13;10.57;;;17.40;94.80;;;;;;5090560;28;20031;-53
2023/06/23 01:15:32;;;;;;;21.48;10.70;;;17.40;94.80;;;;;;5069563;28;20119;-55
2023/06/23 01:18:13;;;;;;;21.05;10.57;;;17.40;94.80;;;;;;5069031;28;20045;-57
2023/06/23 01:20:44;;;;;;;19.45;10.30;;;17.40;94.80;;;;;;5070923;28;20051;-57
2023/06/23 01:24:01;;;;;;;22.67;9.88;;;17.40;94.80;;;;;;5069135;28;20056;-54
2023/06/23 01:26:51;;;;;;;22.13;10.90;;;17.40;94.90;;;;;;5080561;28;20441;-56
2023/06/23 01:29:34;;;;;;;23.65;10.40;;;17.40;95.00;;;;;;5069711;28;20040;-57
2023/06/23 01:32:15;;;;;;;22.70;10.68;;;17.40;95.00;;;;;;5068389;28;20033;-55
2023/06/23 01:34:45;;;;;;;19.00;9.98;;;17.40;94.90;;;;;;5069158;28;20036;-57
2023/06/23 01:37:34;;;;;;;20.13;10.07;;;17.40;95.00;;;;;;5053829;28;20033;-57
2023/06/23 01:40:12;;;;;;;20.25;10.38;;;17.40;95.00;;;;;;5089145;28;20071;-56
2023/06/23 01:42:44;;;;;;;17.58;10.60;;;17.40;95.00;;;;;;5088942;28;20468;-54
2023/06/23 01:45:14;;;;;;;17.70;9.77;;;17.40;95.00;;;;;;5083679;28;20426;-55
2023/06/23 01:47:44;;;;;;;22.25;10.95;;;17.40;95.00;;;;;;5085596;28;20059;-52
2023/06/23 01:50:16;;;;;;;18.15;9.65;;;17.40;94.90;;;;;;5082994;28;20068;-55
2023/06/23 01:52:53;;;;;;;21.67;10.88;;;17.30;94.90;;;;;;5076959;28;20399;-54
2023/06/23 01:55:23;;;;;;;13.82;9.48;;;17.40;95.00;;;;;;5086996;28;20094;-56
2023/06/23 01:57:51;;;;;;;30.45;11.55;;;17.30;95.00;;;;;;5089781;28;20024;-55
2023/06/23 02:00:22;;;;;;;19.13;10.57;;;17.30;95.00;;;;;;5087752;28;20028;-57
2023/06/23 02:02:52;;;;;;;14.48;9.68;;;17.30;95.00;;;;;;5088733;28;20032;-55
2023/06/23 02:05:31;;;;;;;15.70;9.85;;;17.30;95.10;;;;;;5084492;28;20443;-53
2023/06/23 02:08:00;;;;;;;17.25;9.85;;;17.40;95.20;;;;;;5078629;28;20036;-53
2023/06/23 02:10:28;;;;;;;14.85;9.45;;;17.30;95.10;;;;;;5088320;28;20056;-53
2023/06/23 02:13:01;;;;;;;18.88;10.40;;;17.30;95.10;;;;;;5089571;28;20046;-56
2023/06/23 02:15:30;;;;;;;28.30;11.85;;;17.30;95.10;;;;;;5084490;28;20155;-56
2023/06/23 02:18:02;;;;;;;19.55;10.50;;;17.20;95.20;;;;;;5089282;28;20039;-55
2023/06/23 02:20:29;;;;;;;14.52;9.35;;;17.20;95.20;;;;;;5061571;28;20061;-53
2023/06/23 02:22:58;;;;;;;15.95;9.63;;;17.20;95.20;;;;;;5054910;28;20035;-57
2023/06/23 02:25:27;;;;;;;19.73;11.10;;;17.30;95.30;;;;;;5054309;28;20052;-53
2023/06/23 02:27:56;;;;;;;21.08;11.05;;;17.30;95.30;;;;;;5055437;28;20475;-56
2023/06/23 02:30:33;;;;;;;15.57;10.23;;;17.30;95.20;;;;;;5055756;28;20020;-53
2023/06/23 02:33:00;;;;;;;14.95;9.63;;;17.30;95.20;;;;;;5055548;28;20040;-52
2023/06/23 02:35:28;;;;;;;18.33;11.02;;;17.30;95.20;;;;;;5071430;28;20087;-53
2023/06/23 02:38:00;;;;;;;15.48;9.52;;;17.30;95.00;;;;;;5073335;28;20020;-52
2023/06/23 02:40:33;;;;;;;16.33;9.68;;;17.20;95.00;;;;;;5068824;28;20047;-52
2023/06/23 02:43:18;;;;;;;17.52;9.20;;;17.20;95.00;;;;;;5074727;28;20029;-57
2023/06/23 02:45:55;;;;;;;16.80;9.68;;;17.20;95.10;;;;;;5072016;28;20064;-58
2023/06/23 02:48:35;;;;;;;16.15;10.10;;;17.20;95.10;;;;;;5075639;28;20029;-53
2023/06/23 02:51:03;;;;;;;19.90;11.48;;;17.20;95.10;;;;;;5057207;28;20029;-57
2023/06/23 02:53:39;;;;;;;18.30;9.65;;;17.10;95.10;;;;;;5054270;28;20032;-55
2023/06/23 02:56:17;;;;;;;15.88;9.80;;;17.00;95.00;;;;;;5054259;28;20102;-52
2023/06/23 02:58:48;;;;;;;17.17;8.93;;;16.90;95.00;;;;;;5068067;28;20029;-51
2023/06/23 03:01:23;;;;;;;16.52;9.98;;;16.90;95.00;;;;;;5062112;28;20032;-54
2023/06/23 03:03:51;;;;;;;15.45;9.15;;;16.90;95.00;;;;;;5070690;28;20029;-54
2023/06/23 03:06:24;;;;;;;14.85;9.27;;;16.90;95.10;;;;;;5070353;28;20481;-54
2023/06/23 03:08:52;;;;;;;19.13;10.32;;;16.90;95.00;;;;;;5072251;28;20098;-53
2023/06/23 03:11:19;;;;;;;21.08;9.55;;;16.90;94.90;;;;;;5074944;28;20051;-57
2023/06/23 03:13:46;;;;;;;12.73;9.50;;;16.90;94.80;;;;;;5066759;28;20037;-54
2023/06/23 03:16:29;;;;;;;12.70;9.50;;;16.90;94.90;;;;;;5059231;28;20397;-55
2023/06/23 03:19:44;;;;;;;15.88;9.38;;;17.00;94.90;;;;;;5058045;28;20028;-53
2023/06/23 03:22:26;;;;;;;18.67;10.40;;;17.00;95.00;;;;;;5021288;28;20043;-56
2023/06/23 03:25:04;;;;;;;18.73;10.63;;;17.00;94.90;;;;;;5067350;28;20037;-56
2023/06/23 03:27:37;;;;;;;14.35;9.77;;;16.90;95.00;;;;;;5069024;28;20059;-55
2023/06/23 03:30:14;;;;;;;13.32;9.90;;;17.00;95.00;;;;;;5055029;28;20396;-55
2023/06/23 03:32:51;;;;;;;14.93;10.65;;;16.90;95.00;;;;;;5056100;28;20112;-52
2023/06/23 03:35:26;;;;;;;16.75;10.48;;;16.90;95.00;;;;;;5052488;28;20082;-53
2023/06/23 03:38:00;;;;;;;17.98;11.65;;;16.90;95.00;;;;;;5052908;28;20478;-51
2023/06/23 03:40:36;;;;;;;14.68;9.75;;;16.90;94.90;;;;;;5063196;28;20528;-52
2023/06/23 03:43:13;;;;;;;12.05;9.30;;;16.90;95.00;;;;;;5053820;28;20029;-53
2023/06/23 03:45:44;;;;;;;16.40;10.18;;;16.90;95.00;;;;;;5054588;28;20343;-55
2023/06/23 03:48:13;;;;;;;13.40;9.68;;;16.90;95.00;;;;;;5055341;28;20127;-54
2023/06/23 03:50:41;;;;;;;13.32;9.15;;;16.90;95.00;;;;;;5067941;28;20465;-51
2023/06/23 03:53:09;;;;;;;15.32;10.65;;;16.90;94.90;;;;;;5072713;28;20024;-53
2023/06/23 03:55:38;;;;;;;18.40;9.93;;;17.00;95.00;;;;;;5073982;28;20032;-52
2023/06/23 03:58:07;;;;;;;15.20;9.02;;;17.00;95.00;;;;;;5044784;28;20041;-50
2023/06/23 04:00:35;;;;;;;10.32;8.70;;;17.00;94.90;;;;;;5070471;28;20137;-54
2023/06/23 04:03:06;;;;;;;14.65;10.43;;;17.00;95.00;;;;;;5045524;28;20056;-55
2023/06/23 04:05:36;;;;;;;23.20;11.27;;;17.10;95.00;;;;;;5069136;28;20025;-52
2023/06/23 04:08:05;;;;;;;9.30;8.30;;;17.00;94.90;;;;;;5070399;28;20106;-51
2023/06/23 04:10:35;;;;;;;12.00;8.55;;;17.00;94.90;;;;;;5070605;28;20013;-52
2023/06/23 04:13:03;;;;;;;16.85;9.77;;;17.00;94.90;;;;;;5068358;28;20093;-52
2023/06/23 04:15:30;;;;;;;12.60;8.55;;;17.00;94.80;;;;;;5069114;28;20037;-51
2023/06/23 04:17:59;;;;;;;12.05;8.40;;;17.00;94.90;;;;;;5070811;28;20032;-53
2023/06/23 04:20:27;;;;;;;18.40;9.13;;;17.00;94.90;;;;;;5066013;28;20070;-49
2023/06/23 04:22:58;;;;;;;14.68;9.65;;;17.00;94.90;;;;;;5067806;28;20369;-51
2023/06/23 04:25:27;;;;;;;17.13;9.43;;;17.00;94.90;;;;;;5069142;28;20067;-48
2023/06/23 04:28:10;;;;;;;12.35;9.65;;;17.00;94.90;;;;;;5070871;28;20032;-48
2023/06/23 04:30:42;;;;;;;17.88;10.10;;;17.10;94.90;;;;;;5069786;28;20038;-50
2023/06/23 04:33:10;;;;;;;13.52;9.73;;;17.10;94.90;;;;;;5069737;28;20484;-47
2023/06/23 04:35:37;;;;;;;15.82;9.80;;;17.00;94.90;;;;;;5072578;28;20035;-47
2023/06/23 04:38:10;;;;;;;11.65;9.77;;;17.00;94.90;;;;;;5070792;28;20033;-47
2023/06/23 04:41:07;;;;;;;18.80;8.65;;;17.00;94.70;;;;;;5066603;28;20454;-48
2023/06/23 04:43:43;;;;;;;16.10;9.45;;;16.90;94.80;;;;;;5053985;28;20064;-46
2023/06/23 04:46:26;;;;;;;15.65;9.15;;;17.00;94.80;;;;;;5066431;28;20021;-47
2023/06/23 04:49:02;;;;;;;16.58;8.75;;;17.00;94.80;;;;;;5052033;28;20071;-48
2023/06/23 04:51:37;;;;;;;15.27;8.88;;;17.00;94.70;;;;;;5067583;28;20035;-48
2023/06/23 04:54:11;;;;;;;14.40;9.15;;;16.90;94.70;;;;;;5051405;28;20029;-47
2023/06/23 04:56:41;;;;;;;10.30;8.38;;;17.00;94.80;;;;;;5070731;28;20097;-46
2023/06/23 04:59:14;;;;;;;18.42;10.45;;;16.90;94.70;;;;;;5070647;28;20093;-46
2023/06/23 05:01:43;;;;;;;13.30;8.85;;;16.90;94.70;;;;;;5066797;28;20036;-46
2023/06/23 05:04:15;;;;;;;;;;;17.00;94.70;;;;;;5051412;28;20037;-47
2023/06/23 05:06:45;;;;;;;16.08;8.77;;;17.00;94.70;;;;;;5078912;28;20011;-45
2023/06/23 05:09:13;;;;;;;;;;;17.00;94.70;;;;;;5045214;28;20045;-45
2023/06/23 05:11:48;;;;;;;12.13;9.27;;;17.10;94.80;;;;;;5067479;28;20297;-44
2023/06/23 05:14:24;;;;;;;24.85;10.02;;;17.20;94.70;;;;;;5059975;28;20052;-46
2023/06/23 05:16:57;;;;;;;17.55;9.48;;;17.20;94.70;;;;;;5064676;28;20450;-48
2023/06/23 05:19:25;;;;;;;15.00;9.80;;;17.20;94.60;;;;;;5055319;28;20454;-45
2023/06/23 05:21:59;;;;;;;14.88;9.68;;;17.20;94.50;;;;;;5071409;28;20033;-46
2023/06/23 05:24:27;;;;;;;19.60;9.52;;;17.30;94.50;;;;;;5071718;28;20020;-48
2023/06/23 05:27:00;;;;;;;13.63;10.00;;;17.30;94.40;;;;;;5052400;28;20040;-45
2023/06/23 05:29:31;;;;;;;15.95;8.75;;;17.20;94.30;;;;;;5059563;28;20449;-46
2023/06/23 05:32:06;;;;;;;16.50;8.77;;;17.30;94.30;;;;;;5053844;28;20047;-45
2023/06/23 05:34:41;;;;;;;15.05;9.07;;;17.30;94.30;;;;;;5071935;28;20327;-44
2023/06/23 05:37:13;;;;;;;11.00;7.63;;;17.40;94.20;;;;;;5069848;28;20021;-47
2023/06/23 05:39:49;;;;;;;13.85;9.15;;;17.40;94.30;;;;;;5067437;28;20114;-48
2023/06/23 05:42:16;;;;;;;13.45;8.70;;;17.40;94.10;;;;;;5066374;28;20063;-46
2023/06/23 05:44:45;;;;;;;13.25;9.50;;;17.40;94.10;;;;;;5066876;28;21506;-45
2023/06/23 05:47:15;;;;;;;15.95;8.63;;;17.40;93.90;;;;;;5069145;28;20106;-45
2023/06/23 05:49:58;;;;;;;17.25;8.70;;;17.40;93.90;;;;;;5072044;28;20103;-45
2023/06/23 05:52:27;;;;;;;13.10;8.05;;;17.40;94.00;;;;;;5071202;28;20097;-45
2023/06/23 05:54:58;;;;;;;9.73;8.18;;;17.50;93.90;;;;;;5071963;28;20111;-45
2023/06/23 05:57:30;;;;;;;12.35;7.85;;;17.50;93.70;;;;;;5064582;28;20116;-45
2023/06/23 06:00:15;;;;;;;12.75;7.75;;;17.60;93.60;;;;;;5055815;28;20033;-47
2023/06/23 06:02:49;;;;;;;13.77;8.43;;;17.70;93.40;;;;;;5058812;28;20410;-48
2023/06/23 06:05:18;;;;;;;18.30;9.20;;;17.60;93.10;;;;;;5054590;28;20466;-44
2023/06/23 06:07:45;;;;;;;;;;;17.80;93.20;;;;;;5062250;28;20040;-43
2023/06/23 06:10:12;;;;;;;14.32;8.38;;;17.80;92.80;;;;;;5071480;28;20284;-43
2023/06/23 06:12:40;;;;;;;17.60;9.80;;;17.80;92.80;;;;;;5056809;28;20037;-44
2023/06/23 06:15:08;;;;;;;13.48;8.32;;;17.90;92.90;;;;;;5048158;28;20028;-42
2023/06/23 06:17:38;;;;;;;12.13;7.75;;;17.90;92.60;;;;;;5054963;28;20041;-42
2023/06/23 06:20:14;;;;;;;20.33;8.75;;;17.90;92.30;;;;;;5067190;28;20052;-42
2023/06/23 06:22:44;;;;;;;10.95;7.75;;;18.00;92.50;;;;;;5053959;28;20044;-42
2023/06/23 06:25:12;;;;;;;14.48;7.60;;;18.00;92.10;;;;;;5074294;28;20342;-43
2023/06/23 06:27:42;;;;;;;16.38;8.57;;;18.10;92.00;;;;;;5073993;28;20129;-42
2023/06/23 06:30:09;;;;;;;;;;;18.20;91.80;;;;;;5067454;28;20351;-42
2023/06/23 06:32:51;;;;;;;17.30;7.28;;;18.20;91.60;;;;;;5066520;28;20431;-43
2023/06/23 06:35:17;;;;;;;13.23;7.35;;;18.30;91.40;;;;;;5059849;28;20021;-43
2023/06/23 06:37:54;;;;;;;13.73;7.82;;;18.30;91.20;;;;;;5065389;28;20894;-42
2023/06/23 06:40:23;;;;;;;13.95;7.75;;;18.40;91.20;;;;;;5061284;28;20028;-42
2023/06/23 06:42:50;;;;;;;14.60;6.78;;;18.40;91.00;;;;;;5070207;28;20063;-44
2023/06/23 06:45:17;;;;;;;11.80;6.53;;;18.50;91.10;;;;;;5064590;28;20033;-42
2023/06/23 06:47:44;;;;;;;11.20;6.82;;;18.80;91.00;;;;;;5059194;28;20037;-42
2023/06/23 06:50:14;;;;;;;12.98;6.78;;;18.90;90.60;;;;;;5059964;28;20090;-43
2023/06/23 06:52:46;;;;;;;10.52;6.97;;;18.90;89.90;;;;;;5059106;28;20056;-42
2023/06/23 06:55:18;;;;;;;9.15;5.57;;;18.90;89.00;;;;;;5060282;28;20020;-42
2023/06/23 06:57:51;;;;;;;13.68;5.60;;;18.90;89.30;;;;;;5051427;28;20440;-42
2023/06/23 07:00:23;;;;;;;11.52;6.65;;;19.10;89.50;;;;;;5057853;28;20044;-47
2023/06/23 07:02:51;;;;;;;13.75;6.47;;;19.20;89.50;;;;;;5066401;28;20039;-42
2023/06/23 07:05:20;;;;;;;11.32;6.40;;;19.20;89.00;;;;;;5064486;28;20032;-43
2023/06/23 07:07:46;;;;;;;10.45;6.10;;;19.30;88.20;;;;;;5059296;28;20653;-48
2023/06/23 07:10:14;;;;;;;11.32;5.88;;;19.20;87.40;;;;;;5066891;28;20112;-43
2023/06/23 07:12:39;;;;;;;11.18;6.07;;;19.40;87.90;;;;;;5055991;28;20029;-43
2023/06/23 07:15:07;;;;;;;17.17;7.00;;;19.40;86.50;;;;;;5062108;28;20111;-43
2023/06/23 07:17:38;;;;;;;12.00;7.47;;;19.50;86.10;;;;;;5060871;28;20087;-45
2023/06/23 07:20:05;;;;;;;;;;;19.90;86.70;;;;;;5068712;28;20021;-43
2023/06/23 07:22:34;;;;;;;14.25;5.88;;;20.40;86.50;;;;;;5057623;28;19958;-43
2023/06/23 07:25:00;;;;;;;12.55;5.38;;;20.40;84.40;;;;;;5057139;28;20016;-43
2023/06/23 07:27:28;;;;;;;8.77;5.22;;;20.50;83.80;;;;;;5066624;28;20044;-44
2023/06/23 07:29:58;;;;;;;8.35;5.78;;;20.40;82.50;;;;;;5065340;28;20163;-46
2023/06/23 07:32:25;;;;;;;8.70;5.22;;;20.50;81.80;;;;;;5064513;28;20043;-45
2023/06/23 07:34:53;;;;;;;8.75;5.25;;;20.60;81.70;;;;;;5066709;28;20054;-44
2023/06/23 07:37:21;;;;;;;10.65;6.18;;;20.60;81.90;;;;;;5061449;28;20109;-45
2023/06/23 07:39:48;;;;;;;10.50;5.65;;;20.40;81.70;;;;;;5065451;28;20135;-44
2023/06/23 07:42:15;;;;;;;10.75;5.60;;;20.20;82.70;;;;;;5058404;28;20029;-46
2023/06/23 07:44:43;;;;;;;8.48;4.97;;;20.00;82.90;;;;;;5064958;28;20489;-45
2023/06/23 07:47:11;;;;;;;8.55;5.00;;;20.00;82.90;;;;;;5060974;28;20032;-44
2023/06/23 07:49:40;;;;;;;9.63;4.65;;;20.00;83.60;;;;;;5069144;28;20409;-45
2023/06/23 07:52:11;;;;;;;8.60;5.80;;;20.00;83.50;;;;;;5061868;28;20357;-44
2023/06/23 07:54:39;;;;;;;12.93;6.68;;;20.00;82.40;;;;;;5068390;28;20028;-43
2023/06/23 07:57:11;;;;;;;11.25;5.90;;;20.20;82.40;;;;;;5058094;28;20039;-48
2023/06/23 07:59:37;;;;;;;7.45;4.50;;;20.40;82.90;;;;;;5060433;28;20047;-45
2023/06/23 08:02:06;;;;;;;6.80;4.20;;;20.50;80.90;;;;;;5067894;28;20036;-44
2023/06/23 08:04:37;;;;;;;7.38;5.20;;;20.40;79.90;;;;;;5066409;28;20091;-48
2023/06/23 08:07:03;;;;;;;7.28;4.40;;;20.60;80.80;;;;;;5063756;28;20036;-45
2023/06/23 08:09:30;;;;;;;6.22;4.57;;;20.60;80.20;;;;;;5063351;28;20065;-47
2023/06/23 08:11:57;;;;;;;9.95;4.75;;;20.80;80.60;;;;;;5069547;28;20024;-47
2023/06/23 08:14:22;;;;;;;10.27;5.43;;;20.70;79.30;;;;;;5064540;28;20052;-46
2023/06/23 08:16:50;;;;;;;8.63;5.03;;;20.70;79.80;;;;;;5062044;28;20040;-47
2023/06/23 08:19:21;;;;;;;7.50;4.85;;;20.60;81.10;;;;;;5063610;28;20517;-45
2023/06/23 08:21:53;;;;;;;9.30;5.25;;;20.50;81.20;;;;;;5058114;28;20043;-46
2023/06/23 08:24:22;;;;;;;7.57;5.22;;;20.50;81.40;;;;;;5067338;28;20369;-45
2023/06/23 08:26:51;;;;;;;9.15;5.05;;;20.50;81.50;;;;;;5061777;28;20036;-46
2023/06/23 08:29:17;;;;;;;7.20;4.90;;;20.50;79.90;;;;;;5065348;28;20028;-45
2023/06/23 08:31:44;;;;;;;7.90;5.00;;;20.70;80.30;;;;;;5063201;28;20029;-45
2023/06/23 08:34:10;;;;;;;7.00;4.25;;;20.70;78.40;;;;;;5062664;28;20021;-46
2023/06/23 08:36:37;;;;;;;8.60;4.75;;;20.70;79.30;;;;;;5064259;28;20375;-53
2023/06/23 08:39:05;;;;;;;7.03;4.72;;;20.80;78.70;;;;;;5062162;28;20037;-46
2023/06/23 08:41:34;;;;;;;5.60;4.55;;;20.90;78.40;;;;;;5058400;28;20043;-46
2023/06/23 08:44:01;;;;;;;7.03;4.60;;;20.90;77.40;;;;;;5066783;28;20740;-46
2023/06/23 08:46:31;;;;;;;8.35;5.15;;;21.10;76.80;;;;;;5053531;28;20032;-48
2023/06/23 08:49:06;;;;;;;8.82;5.13;;;21.10;77.40;;;;;;5058859;28;20041;-46
2023/06/23 08:51:35;;;;;;;10.90;4.65;;;21.10;77.10;;;;;;5057953;28;20025;-47
2023/06/23 08:54:03;;;;;;;6.38;4.22;;;21.20;77.30;;;;;;5063233;28;20132;-46
2023/06/23 08:56:34;;;;;;;7.38;4.82;;;21.30;75.70;;;;;;5063004;28;20075;-47
2023/06/23 08:59:00;;;;;;;5.93;4.45;;;21.60;76.60;;;;;;5061300;28;20064;-46
2023/06/23 09:01:28;;;;;;;6.18;4.68;;;21.70;73.60;;;;;;5052283;28;20055;-47
2023/06/23 09:03:55;;;;;;;8.55;5.50;;;21.80;73.30;;;;;;5064124;28;20037;-49
2023/06/23 09:06:25;;;;;;;6.85;4.57;;;21.90;74.00;;;;;;5061849;28;20036;-48
2023/06/23 09:08:51;;;;;;;8.93;4.47;;;21.60;73.00;;;;;;5066162;28;20095;-51
2023/06/23 09:11:18;;;;;;;7.35;4.55;;;21.30;73.20;;;;;;5061110;28;20044;-47
2023/06/23 09:13:45;;;;;;;7.90;4.70;;;21.40;75.80;;;;;;5061254;28;20024;-48
2023/06/23 09:16:18;;;;;;;6.32;4.80;;;21.50;74.80;;;;;;5064446;28;20063;-49
2023/06/23 09:18:46;;;;;;;6.90;4.32;;;21.70;74.80;;;;;;5054470;28;20029;-50
2023/06/23 09:21:14;;;;;;;5.60;4.50;;;21.70;72.60;;;;;;5057794;28;20472;-49
2023/06/23 09:24:02;;;;;;;7.22;4.40;;;21.60;73.60;;;;;;5056059;28;20135;-47
2023/06/23 09:26:44;;;;;;;8.77;4.80;;;21.50;72.80;;;;;;5055157;28;20040;-47
2023/06/23 09:29:24;;;;;;;6.20;4.57;;;21.70;72.10;;;;;;5062057;28;20051;-48
2023/06/23 09:31:55;;;;;;;6.30;5.15;;;21.90;74.30;;;;;;5066817;28;20082;-48
2023/06/23 09:34:30;;;;;;;6.43;5.05;;;22.10;73.90;;;;;;5072226;28;20044;-48
2023/06/23 09:37:16;;;;;;;7.00;4.40;;;22.40;70.80;;;;;;5063551;28;20036;-48
2023/06/23 09:39:48;;;;;;;5.70;4.43;;;22.50;71.40;;;;;;5066490;28;20091;-48
2023/06/23 09:42:16;;;;;;;10.13;4.55;;;22.60;71.20;;;;;;5068595;28;20040;-49
2023/06/23 09:44:46;;;;;;;5.22;4.53;;;22.70;71.90;;;;;;5070910;28;20097;-48
2023/06/23 09:47:15;;;;;;;8.75;4.22;;;22.90;69.60;;;;;;5061058;28;20061;-48
2023/06/23 09:49:46;;;;;;;6.15;4.53;;;22.50;69.60;;;;;;5070229;28;20438;-48
2023/06/23 09:52:22;;;;;;;6.10;4.05;;;22.50;71.30;;;;;;5062254;28;20078;-47
2023/06/23 09:54:50;;;;;;;6.25;4.32;;;22.30;71.60;;;;;;5060153;28;20044;-48
2023/06/23 09:57:22;;;;;;;8.88;5.40;;;22.20;72.00;;;;;;5061767;28;20056;-49
2023/06/23 09:59:53;;;;;;;6.47;4.45;;;22.00;71.30;;;;;;5068214;28;20131;-48
2023/06/23 10:02:28;;;;;;;8.27;4.80;;;22.00;72.70;;;;;;5066687;28;20036;-50
2023/06/23 10:05:15;;;;;;;7.80;5.03;;;22.10;71.90;;;;;;5067253;28;20028;-48
2023/06/23 10:07:42;;;;;;;8.90;6.13;;;22.20;72.00;;;;;;5063037;28;20509;-48
2023/06/23 10:10:10;;;;;;;6.45;5.65;;;22.30;72.50;;;;;;5063492;28;20109;-48
2023/06/23 10:12:41;;;;;;;7.30;5.07;;;22.20;73.00;;;;;;5070883;28;20039;-52
2023/06/23 10:15:11;;;;;;;8.07;5.05;;;21.90;74.70;;;;;;5067616;28;20025;-48
2023/06/23 10:17:38;;;;;;;6.70;5.20;;;21.80;73.30;;;;;;5066901;28;20032;-51
2023/06/23 10:20:05;;;;;;;6.80;4.60;;;21.70;72.80;;;;;;5065475;28;20032;-49
2023/06/23 10:22:31;;;;;;;8.88;5.93;;;21.80;71.50;;;;;;5066313;28;20087;-50
2023/06/23 10:25:01;;;;;;;8.40;5.65;;;21.80;71.70;;;;;;5061602;28;20040;-48
2023/06/23 10:27:40;;;;;;;6.20;5.57;;;21.70;72.20;;;;;;5066643;28;20040;-50
2023/06/23 10:30:10;;;;;;;8.60;5.80;;;21.60;73.80;;;;;;5068239;28;20078;-49
2023/06/23 10:32:44;;;;;;;7.13;5.78;;;21.60;72.60;;;;;;5075597;28;20055;-48
2023/06/23 10:35:17;;;;;;;6.22;4.72;;;21.60;73.50;;;;;;5059780;28;20127;-48
2023/06/23 10:37:55;;;;;;;8.63;5.40;;;21.50;74.50;;;;;;5062781;28;20033;-49
2023/06/23 10:40:25;;;;;;;7.95;5.63;;;21.50;74.10;;;;;;5058826;28;20343;-51
2023/06/23 10:42:56;;;;;;;5.68;5.03;;;21.60;74.20;;;;;;5057057;28;20039;-51
2023/06/23 10:45:28;;;;;;;8.48;5.72;;;21.80;71.30;;;;;;5067951;28;20036;-48
2023/06/23 10:47:54;;;;;;;6.43;4.68;;;21.90;70.80;;;;;;5069314;28;20221;-49
2023/06/23 10:50:22;;;;;;;6.60;4.93;;;21.90;69.90;;;;;;5062575;28;20037;-48
2023/06/23 10:52:49;;;;;;;6.10;4.18;;;21.80;70.80;;;;;;5065244;28;20396;-50
2023/06/23 10:55:53;;;;;;;6.95;4.50;;;21.70;70.10;;;;;;5063443;28;20035;-48
2023/06/23 10:58:20;;;;;;;5.43;4.15;;;22.10;71.30;;;;;;4990288;28;20062;-48
2023/06/23 11:00:59;;;;;;;6.13;4.35;;;22.00;69.70;;;;;;5000906;28;20054;-48
2023/06/23 11:03:42;;;;;;;5.47;4.38;;;21.80;69.40;;;;;;5002759;28;20571;-48
2023/06/23 11:06:14;;;;;;;7.38;4.68;;;22.00;69.30;;;;;;4986303;28;20042;-48
2023/06/23 11:08:44;;;;;;;7.45;3.45;;;22.10;68.00;;;;;;4992093;28;20125;-47
2023/06/23 11:11:15;;;;;;;5.13;4.30;;;22.20;69.40;;;;;;4991958;28;20033;-49
2023/06/23 11:13:56;;;;;;;4.72;3.78;;;22.50;69.80;;;;;;4990416;28;20066;-49
2023/06/23 11:16:40;;;;;;;4.45;3.35;;;23.00;69.70;;;;;;4988505;28;20041;-49
2023/06/23 11:19:06;;;;;;;6.07;3.92;;;23.20;66.40;;;;;;4994453;28;20133;-52
2023/06/23 11:21:37;;;;;;;6.10;3.85;;;23.40;68.60;;;;;;5004432;28;20144;-50
2023/06/23 11:24:25;;;;;;;7.15;3.63;;;23.60;65.60;;;;;;4988707;28;20058;-48
2023/06/23 11:27:03;;;;;;;5.93;4.55;;;23.90;66.20;;;;;;5008107;28;20089;-49
2023/06/23 11:29:31;;;;;;;5.97;3.90;;;24.00;67.60;;;;;;4981054;28;20122;-48
2023/06/23 11:32:08;;;;;;;5.95;4.70;;;24.40;67.60;;;;;;5000007;28;20042;-49
2023/06/23 11:34:57;;;;;;;5.05;3.92;;;24.60;64.00;;;;;;5054443;28;20033;-48
2023/06/23 11:37:27;;;;;;;6.97;4.03;;;24.90;65.10;;;;;;5052327;28;20516;-47
2023/06/23 11:39:54;;;;;;;5.45;3.88;;;24.90;61.80;;;;;;5062788;28;20338;-47
2023/06/23 11:42:22;;;;;;;5.38;3.85;;;25.10;62.50;;;;;;5065462;28;20111;-47
2023/06/23 11:44:49;;;;;;;6.90;4.70;;;24.90;62.70;;;;;;5070112;28;20446;-48
2023/06/23 11:47:16;;;;;;;6.13;4.15;;;24.80;61.60;;;;;;5068127;28;20036;-48
2023/06/23 11:49:42;;;;;;;6.25;4.70;;;24.50;61.90;;;;;;5064075;28;20028;-49
2023/06/23 11:52:09;;;;;;;6.53;5.57;;;24.50;62.70;;;;;;5066223;28;20461;-50
2023/06/23 11:54:38;;;;;;;7.15;4.65;;;24.60;63.90;;;;;;5062264;28;20036;-49
2023/06/23 11:57:06;;;;;;;7.72;6.70;;;24.70;66.70;;;;;;5068129;28;20037;-48
2023/06/23 11:59:52;;;;;;;7.95;7.05;;;24.70;65.20;;;;;;5068736;28;20029;-50
2023/06/23 12:02:20;;;;;;;8.80;6.82;;;24.60;65.40;;;;;;5073543;28;20037;-47
2023/06/23 12:04:50;;;;;;;7.40;6.63;;;24.50;68.10;;;;;;5057210;28;20041;-48
2023/06/23 12:07:18;;;;;;;6.63;5.97;;;24.60;67.20;;;;;;5061659;28;20032;-48
2023/06/23 12:09:45;;;;;;;6.63;5.43;;;24.60;66.40;;;;;;5056332;28;20943;-49
2023/06/23 12:12:14;;;;;;;6.72;5.13;;;24.40;69.40;;;;;;5057477;28;20048;-51
2023/06/23 12:14:43;;;;;;;8.32;6.13;;;24.40;71.10;;;;;;5057724;28;20028;-47
2023/06/23 12:17:10;;;;;;;;;;;24.50;68.80;;;;;;5062077;28;20112;-48
2023/06/23 12:19:39;;;;;;;7.10;5.47;;;24.50;68.90;;;;;;5067861;28;19924;-49
2023/06/23 12:22:17;;;;;;;7.72;5.07;;;24.40;70.40;;;;;;5059130;28;20028;-49
2023/06/23 12:24:45;;;;;;;7.78;4.68;;;24.40;69.70;;;;;;5061974;28;20123;-48
2023/06/23 12:27:12;;;;;;;6.18;5.00;;;24.40;69.80;;;;;;5066669;28;20514;-48
2023/06/23 12:29:38;;;;;;;6.50;4.63;;;24.20;68.90;;;;;;5057742;28;20028;-48
2023/06/23 12:32:07;;;;;;;5.80;5.18;;;23.90;67.00;;;;;;5055213;28;20362;-48
2023/06/23 12:34:42;;;;;;;5.35;4.00;;;24.10;66.10;;;;;;5063234;28;20039;-48
2023/06/23 12:37:16;;;;;;;8.30;4.57;;;24.20;66.70;;;;;;5061860;28;20050;-48
2023/06/23 12:39:54;;;;;;;4.85;3.30;;;24.10;65.90;;;;;;5069615;28;20032;-51
2023/06/23 12:42:22;;;;;;;6.20;4.57;;;23.90;60.30;;;;;;5066793;28;20021;-50
2023/06/23 12:44:49;;;;;;;4.32;3.00;;;24.00;64.90;;;;;;5059693;28;20095;-49
2023/06/23 12:47:15;;;;;;;5.32;3.40;;;23.80;59.40;;;;;;5054179;28;20332;-48
2023/06/23 12:49:43;;;;;;;4.40;2.65;;;23.80;56.70;;;;;;5065137;28;20044;-49
2023/06/23 12:52:11;;;;;;;5.10;2.80;;;23.70;58.60;;;;;;5058513;28;20021;-48
2023/06/23 12:54:39;;;;;;;4.10;2.87;;;23.70;57.50;;;;;;5058313;28;20506;-48
2023/06/23 12:57:08;;;;;;;4.45;3.30;;;23.60;58.90;;;;;;5062114;28;20315;-48
2023/06/23 12:59:35;;;;;;;6.55;3.20;;;23.60;58.90;;;;;;5060862;28;20056;-48
2023/06/23 13:02:05;;;;;;;5.50;3.78;;;23.50;60.20;;;;;;5060048;28;20386;-50
2023/06/23 13:04:31;;;;;;;6.35;4.03;;;23.60;60.20;;;;;;5065415;28;20094;-49